• Join FlightAware (Why Join?)
  • Login
  • US Flag 
Rudolph Flight #1: Arrived! 
07:53AM EST


 

Airport Tracker/Info


-or-


 

Live Flight TrackerFlight Track Log ✈ EJA328 ✈ 24-Mar-2014 ✈ KSJC - KSMF

Flight Track Log - Related Links

Times and Time Zones

All times are in EDT time to prevent confusion due to time zone crossing. See the EJA328 flight status page for this flight to view local times or setup timezone preferences in your user account.

Time Position Orientation Groundspeed Altitude Reporting Facility
EDT Latitude Longitude Course Direction KTS MPH feet Rate Location/Type
06:01PM 37.3652 -121.9330 319° Northwest 156 180 400  Level FlightAware ADS-B
06:01PM 37.3749 -121.9440 317° Northwest 180 207 1,500 3,840 Climbing FlightAware ADS-B
06:01PM 37.3734 -121.9419 318° Northwest 174 200 1,500 3,840 Level FlightAware ADS-B
06:01PM 37.3834 -121.9530 318° Northwest 186 214 2,400 3,780 Climbing FlightAware ADS-B
06:02PM 37.3867 -121.9569 322° Northwest 191 220 2,700 2,640 Climbing FlightAware ADS-B
06:02PM 37.3906 -121.9600 332° Northwest 196 226 2,800 2,400 Climbing FlightAware ADS-B
06:02PM 37.3962 -121.9610 347° North 203 234 3,100 3,000 Climbing FlightAware ADS-B
06:02PM 37.3998 -121.9620 357° North 209 241 3,300 3,000 Climbing FlightAware ADS-B
06:02PM 37.4028 -121.9610 North 214 246 3,400 960 Climbing FlightAware ADS-B
06:02PM 37.4058 -121.9600 13° North 219 252 3,400 1,680 Level FlightAware ADS-B
06:02PM 37.4098 -121.9590 23° Northeast 224 258 3,600 1,980 Climbing FlightAware ADS-B
06:02PM 37.4141 -121.9550 32° Northeast 224 258 3,700 840 Climbing FlightAware ADS-B
06:02PM 37.4137 -121.9558 34° Northeast 222 255 3,700 1,500 Level FlightAware ADS-B
06:02PM 37.4166 -121.9530 39° Northeast 221 254 3,800 1,800 Climbing FlightAware ADS-B
06:02PM 37.4216 -121.9450 58° Northeast 217 250 4,000 1,320 Climbing FlightAware ADS-B
06:02PM 37.4216 -121.9447 58° Northeast 217 250 4,000 1,980 Level FlightAware ADS-B
06:02PM 37.4233 -121.9400 67° East 219 252 4,100 2,220 Climbing FlightAware ADS-B
06:02PM 37.4246 -121.9340 76° East 220 253 4,300 1,500 Climbing FlightAware ADS-B
06:02PM 37.4248 -121.9322 78° East 220 253 4,300 3,960 Level FlightAware ADS-B
06:02PM 37.4250 -121.9290 85° East 217 250 4,500 4,800 Climbing FlightAware ADS-B
06:02PM 37.4247 -121.9250 95° East 212 244 4,700 3,420 Climbing FlightAware ADS-B
06:02PM 37.4239 -121.9210 103° East 208 239 4,900 3,000 Climbing FlightAware ADS-B
06:03PM 37.4245 -121.9234 101° East 210 242 4,900 3,600 Level FlightAware ADS-B
06:03PM 37.4222 -121.9160 116° Southeast 208 239 5,200 3,720 Climbing FlightAware ADS-B
06:03PM 37.4200 -121.9120 123° Southeast 209 241 5,400 3,000 Climbing FlightAware ADS-B
06:03PM 37.4193 -121.9107 116° Southeast 208 239 5,500 3,420 Climbing FlightAware ADS-B
06:03PM 37.4155 -121.9050 133° Southeast 216 249 5,800 4,260 Climbing FlightAware ADS-B
06:03PM 37.4091 -121.8973 135° Southeast 216 249 6,500 4,080 Climbing FlightAware ADS-B (KHWD)
06:03PM 37.4041 -121.8910 136° Southeast 219 252 6,900 3,720 Climbing FlightAware ADS-B
06:03PM 37.3973 -121.8830 138° Southeast 220 253 7,500 4,080 Climbing FlightAware ADS-B
06:03PM 37.3883 -121.8779 162° South 218 251 8,200 4,320 Climbing FlightAware ADS-B
06:03PM 37.3798 -121.8780 183° South 219 252 8,800 4,200 Climbing FlightAware ADS-B
06:04PM 37.3798 -121.8776 190° South 222 255 8,900 3,000 Climbing FlightAware ADS-B
06:04PM 37.3752 -121.8790 195° South 224 258 9,000 2,700 Climbing FlightAware ADS-B
06:04PM 37.3684 -121.8837 213° Southwest 232 267 9,400 3,480 Climbing FlightAware ADS-B
06:04PM 37.3647 -121.8880 222° Southwest 237 273 9,700 4,260 Climbing FlightAware ADS-B
06:04PM 37.3618 -121.8920 231° Southwest 239 275 9,900 3,000 Climbing FlightAware ADS-B
06:04PM 37.3615 -121.8928 231° Southwest 239 275 10,000 3,960 Climbing FlightAware ADS-B
06:04PM 37.3587 -121.8990 244° Southwest 243 280 10,300 4,500 Climbing FlightAware ADS-B
06:04PM 37.3564 -121.9110 259° West 246 283 10,900 3,960 Climbing FlightAware ADS-B
06:04PM 37.3561 -121.9160 267° West 250 288 11,100 2,520 Climbing FlightAware ADS-B
06:04PM 37.3561 -121.9177 263° West 248 285 11,200 2,400 Climbing FlightAware ADS-B (KHWD)
06:04PM 37.3567 -121.9240 276° West 257 296 11,300 2,520 Climbing FlightAware ADS-B
06:04PM 37.3580 -121.9310 285° West 266 306 11,500 2,520 Climbing FlightAware ADS-B
06:04PM 37.3568 -121.9245 289° West 269 310 11,600 1,500 Climbing FlightAware ADS-B
06:04PM 37.3599 -121.9370 292° West 273 314 11,600  Level FlightAware ADS-B
06:04PM 37.3630 -121.9430 302° West 282 325 11,600 660 Level FlightAware ADS-B
06:04PM 37.3668 -121.9500 310° West 291 335 11,700 600 Climbing FlightAware ADS-B
06:05PM 37.3718 -121.9560 318° Northwest 298 343 11,700 600 Level FlightAware ADS-B
06:05PM 37.3767 -121.9600 324° Northwest 305 351 11,800 1,200 Climbing FlightAware ADS-B
06:05PM 37.3779 -121.9614 322° Northwest 303 349 11,800  Level FlightAware ADS-B
06:05PM 37.3853 -121.9665 334° Northwest 315 362 11,800 360 Level FlightAware ADS-B (KHWD)
06:05PM 37.3995 -121.9720 348° North 329 379 11,900 540 Climbing FlightAware ADS-B
06:05PM 37.4024 -121.9725 352° North 334 384 11,900 -720 Level FlightAware ADS-B
06:05PM 37.4143 -121.9740 358° North 341 392 11,800 -780 Descending FlightAware ADS-B
06:05PM 37.4183 -121.9734 North 345 397 11,800  Level FlightAware ADS-B (KHWD)
06:05PM 37.4310 -121.9720 North 350 403 11,800  Level FlightAware ADS-B
06:05PM 37.4446 -121.9700 North 357 411 11,800  Level FlightAware ADS-B
06:05PM 37.4531 -121.9690 North 360 414 11,800  Level FlightAware ADS-B
06:06PM 37.4595 -121.9690 359° North 362 417 11,800  Level FlightAware ADS-B
06:06PM 37.4924 -121.9710 358° North 369 425 11,800  Level FlightAware ADS-B
06:06PM 37.4997 -121.9710 North 371 427 11,800  Level FlightAware ADS-B
06:06PM 37.5053 -121.9703 North 372 428 11,800  Level FlightAware ADS-B
06:06PM 37.5094 -121.9690 11° North 372 428 11,800  Level FlightAware ADS-B
06:06PM 37.5190 -121.9650 19° North 373 429 11,800  Level FlightAware ADS-B
06:06PM 37.5164 -121.9667 20° North 373 429 11,800 180 Level FlightAware ADS-B
06:07PM 37.5684 -121.9420 19° North 376 433 11,900 180 Climbing FlightAware ADS-B
06:07PM 37.5684 -121.9420 19° North 376 433 11,900  Level FlightAware ADS-B
06:07PM 37.6185 -121.9200 19° North 379 436 11,900  Level FlightAware ADS-B
06:07PM 37.6210 -121.9192 19° North 379 436 11,900  Level FlightAware ADS-B
06:08PM 37.6684 -121.8980 19° North 380 437 11,900  Level FlightAware ADS-B
06:08PM 37.6647 -121.8999 19° North 381 438 11,900  Level FlightAware ADS-B
06:08PM 37.7184 -121.8760 19° North 381 438 11,900  Level FlightAware ADS-B
06:08PM 37.7370 -121.8679 19° North 381 438 11,900  Level FlightAware ADS-B (KHWD)
06:09PM 37.7689 -121.8540 19° North 381 438 11,900 420 Level FlightAware ADS-B
06:09PM 37.7930 -121.8432 19° North 381 438 12,200  Climbing FlightAware ADS-B
06:09PM 37.8193 -121.8310 19° North 381 438 11,900 -480 Descending FlightAware ADS-B
06:10PM 37.8713 -121.8080 19° North 380 437 11,900 540 Level FlightAware ADS-B
06:10PM 37.8583 -121.8142 19° North 380 437 12,200  Climbing FlightAware ADS-B
06:10PM 37.9218 -121.7860 19° North 380 437 11,900  Descending FlightAware ADS-B
06:10PM 37.9228 -121.7855 19° North 379 436 12,200  Climbing FlightAware ADS-B
06:11PM 37.9726 -121.7630 19° North 381 438 11,900 -780 Descending FlightAware ADS-B
06:11PM 38.0268 -121.7390 19° North 376 433 11,500 -780 Descending FlightAware ADS-B
06:11PM 38.0382 -121.7340 19° North 376 433 11,400 -840 Descending FlightAware ADS-B
06:12PM 38.0765 -121.7170 19° North 374 430 11,100 -180 Descending FlightAware ADS-B
06:12PM 38.0895 -121.7111 19° North 374 430 11,300 -420 Climbing FlightAware ADS-B
06:12PM 38.1269 -121.6940 19° North 376 433 10,900 -180 Descending FlightAware ADS-B
06:13PM 38.1574 -121.6807 19° North 377 434 11,200  Climbing FlightAware ADS-B
06:13PM 38.1766 -121.6720 20° North 379 436 10,900  Descending FlightAware ADS-B
06:13PM 38.2239 -121.6508 19° North 379 436 11,200 180 Climbing FlightAware ADS-B
06:14PM 38.2907 -121.6207 19° North 381 438 11,200 -300 Level FlightAware ADS-B
06:15PM 38.3890 -121.6138 356° North 311 358 10,700 -840 Descending FlightAware ADS-B
06:15PM 38.4177 -121.6161 356° North 300 345 10,100 -2,160 Descending FlightAware ADS-B
06:16PM 38.4443 -121.6183 356° North 296 341 9,300 -2,640 Descending FlightAware ADS-B
06:16PM 38.4712 -121.6204 356° North 298 343 8,400 -2,820 Descending FlightAware ADS-B
06:16PM 38.5003 -121.6223 357° North 297 342 7,400 -2,640 Descending FlightAware ADS-B
06:17PM 38.5270 -121.6286 347° North 290 334 6,600 -2,280 Descending FlightAware ADS-B
06:17PM 38.5769 -121.6432 346° North 274 315 5,200 -1,920 Descending FlightAware ADS-B
06:18PM 38.5992 -121.6499 347° North 257 296 4,800 -1,080 Descending FlightAware ADS-B
06:18PM 38.6216 -121.6564 347° North 240 276 4,500 -900 Descending FlightAware ADS-B
06:18PM 38.6413 -121.6620 347° North 226 260 4,200 -900 Descending FlightAware ADS-B
06:19PM 38.6651 -121.6630 North 211 243 3,900 -780 Descending FlightAware ADS-B
06:19PM 38.6821 -121.6623 North 206 237 3,700 -960 Descending FlightAware ADS-B
06:19PM 38.7017 -121.6615 North 202 232 3,300 -780 Descending FlightAware ADS-B
06:20PM 38.7200 -121.6609 North 189 217 3,200 -180 Descending FlightAware ADS-B
06:20PM 38.7362 -121.6602 North 176 203 3,200  Level FlightAware ADS-B
06:20PM 38.7520 -121.6597 North 173 199 3,200  Level FlightAware ADS-B
06:21PM 38.7688 -121.6577 18° North 167 192 3,200 -840 Level FlightAware ADS-B
06:22PM 38.7733 -121.6116 118° Southeast 137 158 2,100 -1,200 Descending FlightAware ADS-B
06:22PM 38.7525 -121.5996 183° South 130 150 1,300 -1,200 Descending FlightAware ADS-B
06:23PM 38.7456 -121.6002 360° North 124 143 900 -1,020 Descending FlightAware ADS-B
06:23PM 38.7318 -121.6006 182° South 119 137 700 -540 Descending FlightAware ADS-B
06:24PM 38.6906 -121.6011 182° South 131 151 200 -420 Descending Oakland Center